createdAt,value
2018-04-16T00:00:24.657Z,98934.03
2018-04-16T00:06:29.091Z,98926.05
2018-04-16T00:12:33.525Z,98908.63
2018-04-16T00:18:37.891Z,98915.24
2018-04-16T00:24:42.781Z,98914.14
2018-04-16T00:30:47.990Z,98934.49
2018-04-16T00:36:57.822Z,98933.58
2018-04-16T00:43:07.660Z,98942.64
2018-04-16T00:49:18.319Z,98952.92
2018-04-16T00:55:28.150Z,98950.80
2018-04-16T01:01:38.066Z,98958.16
2018-04-16T01:07:48.572Z,98964.18
2018-04-16T01:13:58.482Z,98957.83
2018-04-16T01:20:08.431Z,98945.17
2018-04-16T01:26:18.499Z,98954.66
2018-04-16T01:32:28.335Z,98946.78
2018-04-16T01:38:38.338Z,98948.77
2018-04-16T01:44:48.226Z,98958.77
2018-04-16T01:50:58.176Z,98962.23
2018-04-16T01:57:08.168Z,98964.77
2018-04-16T02:03:18.155Z,98973.97
2018-04-16T02:09:28.873Z,98973.39
2018-04-16T02:15:38.699Z,98962.27
2018-04-16T02:21:48.858Z,98961.39
2018-04-16T02:27:58.819Z,98956.50
2018-04-16T02:40:52.408Z,98945.86
2018-04-16T03:04:11.587Z,98965.95
2018-04-16T03:10:21.404Z,98973.42
2018-04-16T03:16:31.291Z,98955.90
2018-04-16T03:22:41.771Z,98965.59
2018-04-16T03:28:52.427Z,98979.84
2018-04-16T03:35:02.274Z,98987.28
2018-04-16T03:41:13.601Z,98990.06
2018-04-16T03:47:23.582Z,98984.63
2018-04-16T03:53:30.325Z,98980.47
2018-04-16T03:59:34.700Z,98988.18
2018-04-16T04:05:39.130Z,98992.06
2018-04-16T04:11:43.681Z,99007.36
2018-04-16T04:17:48.095Z,99007.31
2018-04-16T04:24:10.430Z,99005.84
2018-04-16T04:30:41.641Z,98996.48
2018-04-16T04:36:46.109Z,99013.77
2018-04-16T04:42:50.499Z,99020.94
2018-04-16T04:48:54.929Z,99027.11
2018-04-16T04:54:59.302Z,99034.58
2018-04-16T05:01:03.678Z,99031.53
2018-04-16T05:07:08.051Z,99050.22
2018-04-16T05:13:12.516Z,99050.20
2018-04-16T05:19:16.899Z,99045.70
2018-04-16T05:25:21.378Z,99043.95
2018-04-16T05:31:25.755Z,99052.44
2018-04-16T05:37:30.116Z,99046.72
2018-04-16T05:43:34.482Z,99060.41
2018-04-16T05:49:39.651Z,99067.20
2018-04-16T05:55:44.796Z,99084.77
2018-04-16T06:01:49.162Z,99101.89
2018-04-16T06:07:53.648Z,99107.08
2018-04-16T06:13:58.001Z,99101.89
2018-04-16T06:20:02.399Z,99109.69
2018-04-16T06:26:06.784Z,99115.34
2018-04-16T06:32:12.011Z,99114.66
2018-04-16T06:38:16.376Z,99123.27
2018-04-16T06:44:20.746Z,99121.11
2018-04-16T06:50:25.919Z,99125.77
2018-04-16T06:56:30.294Z,99136.38
2018-04-16T07:02:34.642Z,99138.48
2018-04-16T07:08:39.038Z,99147.89
2018-04-16T07:14:43.527Z,99163.73
2018-04-16T07:20:47.903Z,99164.31
2018-04-16T07:26:52.346Z,99166.44
2018-04-16T07:32:56.719Z,99177.81
2018-04-16T07:39:01.306Z,99175.61
2018-04-16T07:45:05.667Z,99178.45
2018-04-16T07:51:10.047Z,99180.21
2018-04-16T07:57:14.434Z,99187.64
2018-04-16T08:03:18.785Z,99198.27
2018-04-16T08:09:23.976Z,99192.43
2018-04-16T08:15:29.106Z,99208.57
2018-04-16T08:21:33.462Z,99204.92
2018-04-16T08:27:37.820Z,99200.20
2018-04-16T08:33:42.954Z,99201.84
2018-04-16T08:39:47.330Z,99188.55
2018-04-16T08:45:51.710Z,99189.57
2018-04-16T08:51:56.083Z,99191.73
2018-04-16T08:58:00.473Z,99198.44
2018-04-16T09:04:04.857Z,99197.31
2018-04-16T09:10:09.266Z,99190.79
2018-04-16T09:16:13.645Z,99198.51
2018-04-16T09:22:18.847Z,99206.76
2018-04-16T09:28:23.210Z,99200.16
2018-04-16T09:34:28.654Z,99201.02
2018-04-16T09:40:32.993Z,99205.00
2018-04-16T09:46:37.364Z,99196.06
2018-04-16T09:52:42.592Z,99193.80
2018-04-16T09:58:46.959Z,99200.83
2018-04-16T10:04:51.339Z,99211.83
2018-04-16T10:10:56.019Z,99212.78
2018-04-16T10:17:01.151Z,99204.34
2018-04-16T10:23:06.316Z,99204.44
2018-04-16T10:29:10.707Z,99208.64
2018-04-16T10:35:15.075Z,99208.23
2018-04-16T10:41:19.446Z,99206.65
2018-04-16T10:47:23.840Z,99207.63
2018-04-16T10:53:28.216Z,99217.03
2018-04-16T10:59:32.588Z,99213.30
2018-04-16T11:05:36.970Z,99215.66
2018-04-16T11:11:41.355Z,99212.23
2018-04-16T11:17:46.580Z,99219.19
2018-04-16T11:23:50.946Z,99223.33
2018-04-16T11:29:55.404Z,99221.67
2018-04-16T11:36:00.529Z,99220.61
2018-04-16T11:42:04.918Z,99226.66
2018-04-16T11:48:09.430Z,99228.75
2018-04-16T11:54:13.967Z,99225.52
2018-04-16T12:00:18.338Z,99224.59
2018-04-16T12:06:22.694Z,99236.23
2018-04-16T12:12:27.058Z,99248.66
2018-04-16T12:18:32.195Z,99247.63
2018-04-16T12:24:36.549Z,99244.15
2018-04-16T12:30:40.969Z,99235.61
2018-04-16T12:36:45.375Z,99241.30
2018-04-16T12:42:49.734Z,99234.83
2018-04-16T12:49:00.923Z,99224.66
2018-04-16T12:55:10.918Z,99235.36
2018-04-16T13:01:26.666Z,99240.23
2018-04-16T13:07:36.815Z,99246.22
2018-04-16T13:13:41.301Z,99250.37
2018-04-16T13:19:51.838Z,99253.13
2018-04-16T13:26:02.834Z,99249.67
2018-04-16T13:32:13.167Z,99264.10
2018-04-16T13:38:28.952Z,99269.83
2018-04-16T13:44:39.193Z,99266.31
2018-04-16T13:50:49.320Z,99270.66
2018-04-16T13:56:53.674Z,99274.80
2018-04-16T14:02:58.198Z,99274.49
2018-04-16T14:09:09.290Z,99278.86
2018-04-16T14:15:19.498Z,99289.44
2018-04-16T14:21:23.880Z,99277.88
2018-04-16T14:27:40.270Z,99283.25
2018-04-16T14:33:50.655Z,99295.16
2018-04-16T14:40:06.979Z,99292.78
2018-04-16T14:46:17.339Z,99287.17
2018-04-16T14:52:21.733Z,99296.42
2018-04-16T14:58:26.141Z,99296.66
2018-04-16T15:04:36.278Z,99288.16
2018-04-16T15:10:46.583Z,99295.22
2018-04-16T15:16:50.987Z,99298.11
2018-04-16T15:22:55.483Z,99302.48
2018-04-16T15:29:00.233Z,99310.20
2018-04-16T15:35:04.723Z,99305.03
2018-04-16T15:41:09.172Z,99299.50
2018-04-16T15:47:13.847Z,99303.69
2018-04-16T15:53:18.208Z,99309.92
2018-04-16T15:59:22.594Z,99318.28
2018-04-16T16:05:27.082Z,99331.19
2018-04-16T16:11:31.468Z,99325.23
2018-04-16T16:17:35.863Z,99335.24
2018-04-16T16:23:40.372Z,99331.41
2018-04-16T16:29:45.568Z,99339.13
2018-04-16T16:35:50.777Z,99338.53
2018-04-16T16:41:55.146Z,99347.55
2018-04-16T16:47:59.519Z,99353.45
2018-04-16T16:54:04.760Z,99368.56
2018-04-16T17:00:09.150Z,99383.41
2018-04-16T17:06:13.590Z,99383.31
2018-04-16T17:12:18.004Z,99394.63
2018-04-16T17:18:22.550Z,99403.08
2018-04-16T17:24:26.992Z,99410.25
2018-04-16T17:30:32.168Z,99421.40
2018-04-16T17:36:37.322Z,99419.48
2018-04-16T17:42:41.977Z,99430.08
2018-04-16T17:48:46.418Z,99442.27
2018-04-16T17:54:50.839Z,99442.90
2018-04-16T18:00:55.342Z,99459.41
2018-04-16T18:06:59.839Z,99471.41
2018-04-16T18:13:04.205Z,99484.28
2018-04-16T18:19:08.601Z,99498.17
2018-04-16T18:25:13.451Z,99509.27
2018-04-16T18:31:17.849Z,99527.41
2018-04-16T18:37:22.303Z,99546.64
2018-04-16T18:43:26.771Z,99553.91
2018-04-16T18:49:31.283Z,99565.06
2018-04-16T18:55:35.792Z,99571.61
2018-04-16T19:01:40.638Z,99582.70
2018-04-16T19:07:45.111Z,99594.57
2018-04-16T19:13:49.477Z,99598.43
2018-04-16T19:19:54.107Z,99616.34
2018-04-16T19:25:59.324Z,99620.97
2018-04-16T19:32:03.686Z,99623.05
2018-04-16T19:38:08.086Z,99636.78
2018-04-16T19:44:12.567Z,99640.44
2018-04-16T19:50:17.056Z,99653.77
2018-04-16T19:56:27.023Z,99657.69
2018-04-16T20:02:36.988Z,99664.31
2018-04-16T20:08:41.578Z,99682.75
2018-04-16T20:14:46.006Z,99682.31
2018-04-16T20:20:50.423Z,99691.11
2018-04-16T20:26:54.836Z,99692.03
2018-04-16T20:32:59.234Z,99701.59
2018-04-16T20:39:03.638Z,99709.31
2018-04-16T20:45:08.796Z,99715.83
2018-04-16T20:51:13.534Z,99719.05
2018-04-16T20:57:17.927Z,99737.95
2018-04-16T21:03:22.425Z,99738.81
2018-04-16T21:09:26.824Z,99747.45
2018-04-16T21:15:31.299Z,99752.97
2018-04-16T21:21:35.689Z,99773.28
2018-04-16T21:27:40.226Z,99775.28
2018-04-16T21:33:44.618Z,99780.15
2018-04-16T21:39:49.006Z,99786.86
2018-04-16T21:45:53.389Z,99798.77
2018-04-16T21:51:57.770Z,99799.49
2018-04-16T21:58:02.222Z,99803.30
2018-04-16T22:04:06.677Z,99816.98
2018-04-16T22:10:11.179Z,99823.28
2018-04-16T22:16:15.547Z,99830.30
2018-04-16T22:22:19.942Z,99835.58
2018-04-16T22:28:24.421Z,99850.48
2018-04-16T22:34:28.830Z,99852.60
2018-04-16T22:40:34.841Z,99858.68
2018-04-16T22:46:39.982Z,99874.55
2018-04-16T22:52:44.576Z,99869.72
2018-04-16T22:58:48.974Z,99876.47
2018-04-16T23:04:54.965Z,99880.54
2018-04-16T23:10:59.339Z,99885.61
2018-04-16T23:17:03.807Z,99886.84
2018-04-16T23:23:08.181Z,99897.70
2018-04-16T23:29:12.734Z,99908.11
2018-04-16T23:35:17.140Z,99909.01
2018-04-16T23:41:21.528Z,99921.71
2018-04-16T23:47:25.937Z,99927.86
2018-04-16T23:53:31.076Z,99927.88
2018-04-16T23:59:35.462Z,99938.25
